Time;durP1;ratioP1;P1;durP2;ratioP2;P2;SDS_P1;SDS_P2;PMS_P1;PMS_P2;Temp;Humidity;BMP_temperature;BMP_pressure;BME280_temperature;BME280_humidity;BME280_pressure;Samples;Min_cycle;Max_cycle;Signal;HPM_P1;HPM_P2
2022/10/24 00:00:19;;;;;;;6.07;3.87;;;13.20;99.90;;;;;;4122536;28;20338;-78
2022/10/24 00:02:21;;;;;;;6.50;4.10;;;13.30;99.90;;;;;;4127671;28;20205;-78
2022/10/24 00:04:23;;;;;;;5.80;3.60;;;13.20;99.90;;;;;;4123955;28;20308;-79
2022/10/24 00:06:25;;;;;;;6.03;3.80;;;13.20;99.90;;;;;;4127025;28;20240;-80
2022/10/24 00:08:27;;;;;;;6.20;3.90;;;13.20;99.90;;;;;;4128540;28;20314;-78
2022/10/24 00:10:29;;;;;;;5.60;3.73;;;13.40;99.90;;;;;;4130286;28;20215;-78
2022/10/24 00:12:32;;;;;;;5.93;3.90;;;13.20;99.90;;;;;;4111755;28;20240;-78
2022/10/24 00:14:35;;;;;;;6.47;4.20;;;13.20;99.90;;;;;;4122765;28;20634;-78
2022/10/24 00:16:37;;;;;;;5.40;3.70;;;13.10;99.90;;;;;;4122196;28;20249;-77
2022/10/24 00:18:40;;;;;;;7.97;3.77;;;13.20;99.90;;;;;;4119600;28;20240;-78
2022/10/24 00:20:42;;;;;;;6.00;3.93;;;13.20;99.90;;;;;;4123627;28;20232;-78
2022/10/24 00:22:44;;;;;;;4.73;3.23;;;13.20;99.90;;;;;;4128594;28;20287;-78
2022/10/24 00:24:46;;;;;;;5.07;3.53;;;13.10;99.90;;;;;;4129097;28;20299;-78
2022/10/24 00:26:48;;;;;;;6.80;3.53;;;13.10;99.90;;;;;;4109705;28;20215;-79
2022/10/24 00:28:51;;;;;;;6.10;3.47;;;13.20;99.90;;;;;;4126602;28;20284;-79
2022/10/24 00:30:53;;;;;;;5.50;3.90;;;13.10;99.90;;;;;;4104829;28;20224;-79
2022/10/24 00:32:55;;;;;;;5.60;3.73;;;13.10;99.90;;;;;;4122871;28;20208;-78
2022/10/24 00:34:57;;;;;;;8.70;4.10;;;13.10;99.90;;;;;;4127272;28;20201;-83
2022/10/24 00:36:59;;;;;;;7.70;3.77;;;13.10;99.90;;;;;;4121283;28;20236;-81
2022/10/24 00:39:00;;;;;;;9.10;4.13;;;13.10;99.90;;;;;;4124512;28;20219;-78
2022/10/24 00:41:02;;;;;;;6.03;4.03;;;13.10;99.90;;;;;;4125813;28;20204;-79
2022/10/24 00:43:04;;;;;;;9.00;4.43;;;13.00;99.90;;;;;;4121208;28;20213;-81
2022/10/24 00:45:38;;;;;;;8.23;3.93;;;13.10;99.90;;;;;;4118518;28;20223;-83
2022/10/24 00:47:40;;;;;;;7.03;4.10;;;13.00;99.90;;;;;;4127113;28;20698;-79
2022/10/24 00:49:50;;;;;;;5.97;3.60;;;13.00;99.90;;;;;;4126133;28;20221;-81
2022/10/24 00:51:56;;;;;;;7.23;3.90;;;13.00;99.90;;;;;;4124700;28;20223;-78
2022/10/24 00:54:01;;;;;;;7.50;3.83;;;13.00;99.90;;;;;;4107587;28;20221;-80
2022/10/24 00:56:05;;;;;;;5.97;3.50;;;13.00;99.90;;;;;;4104450;28;20235;-78
2022/10/24 00:58:08;;;;;;;7.83;3.63;;;13.00;99.90;;;;;;4122223;28;20312;-78
2022/10/24 01:00:14;;;;;;;7.13;4.03;;;13.00;99.90;;;;;;4128533;28;20219;-80
2022/10/24 01:02:17;;;;;;;6.10;3.43;;;13.10;99.90;;;;;;4125853;28;20215;-78
2022/10/24 01:04:19;;;;;;;6.93;3.73;;;13.10;99.90;;;;;;4107857;28;20604;-80
2022/10/24 01:06:36;;;;;;;7.27;3.57;;;13.00;99.90;;;;;;4118771;28;20197;-79
2022/10/24 01:08:46;;;;;;;7.20;3.80;;;13.00;99.90;;;;;;4111025;28;20231;-79
2022/10/24 01:10:58;;;;;;;6.30;3.80;;;13.00;99.90;;;;;;4118727;28;20240;-78
2022/10/24 01:13:12;;;;;;;7.50;3.50;;;13.10;99.90;;;;;;4121239;28;20291;-78
2022/10/24 01:15:21;;;;;;;6.97;3.93;;;13.00;99.90;;;;;;4120567;28;20662;-79
2022/10/24 01:17:31;;;;;;;5.70;3.67;;;13.10;99.90;;;;;;4105628;28;20256;-78
2022/10/24 01:20:12;;;;;;;7.23;4.27;;;13.00;99.90;;;;;;4128959;28;20210;-81
2022/10/24 01:22:19;;;;;;;5.17;3.50;;;13.10;99.90;;;;;;4124418;28;20238;-79
2022/10/24 01:24:51;;;;;;;6.27;3.37;;;13.10;99.90;;;;;;4123712;28;20241;-80
2022/10/24 01:27:13;;;;;;;6.40;3.70;;;13.10;99.90;;;;;;4122037;28;20214;-79
2022/10/24 01:29:22;;;;;;;5.70;3.53;;;13.00;99.90;;;;;;4115920;28;20201;-81
2022/10/24 01:31:30;;;;;;;5.43;3.43;;;13.00;99.90;;;;;;4125021;28;20662;-79
2022/10/24 01:33:36;;;;;;;5.87;3.47;;;13.00;99.90;;;;;;4124197;28;20294;-78
2022/10/24 01:35:44;;;;;;;6.37;3.27;;;13.00;99.90;;;;;;4129506;28;20215;-78
2022/10/24 01:37:54;;;;;;;8.97;3.67;;;13.00;99.90;;;;;;4136436;28;20289;-79
2022/10/24 01:40:00;;;;;;;5.33;3.50;;;13.00;99.90;;;;;;4126623;28;20204;-78
2022/10/24 01:42:04;;;;;;;5.23;3.50;;;13.00;99.90;;;;;;4120278;28;20243;-80
2022/10/24 01:44:11;;;;;;;5.53;3.60;;;13.00;99.90;;;;;;4123902;28;20222;-78
2022/10/24 01:46:24;;;;;;;6.73;3.43;;;13.10;99.90;;;;;;4119203;28;20248;-78
2022/10/24 01:48:31;;;;;;;12.30;4.10;;;13.00;99.90;;;;;;4131031;28;20761;-78
2022/10/24 01:50:36;;;;;;;6.17;3.83;;;13.00;99.90;;;;;;4123845;28;20232;-78
2022/10/24 01:52:42;;;;;;;5.47;3.50;;;13.00;99.90;;;;;;4106640;28;20605;-80
2022/10/24 01:54:46;;;;;;;5.80;3.50;;;13.00;99.90;;;;;;4126711;28;20236;-77
2022/10/24 01:56:48;;;;;;;6.10;3.37;;;12.90;99.90;;;;;;4115566;28;20760;-78
2022/10/24 01:58:50;;;;;;;6.83;3.70;;;13.00;99.90;;;;;;4123324;28;20228;-79
2022/10/24 02:00:58;;;;;;;5.30;3.73;;;13.00;99.90;;;;;;4126067;28;20816;-78
2022/10/24 02:03:04;;;;;;;8.50;3.97;;;13.00;99.90;;;;;;4117229;28;20577;-77
2022/10/24 02:05:12;;;;;;;8.47;3.97;;;12.90;99.90;;;;;;4121864;28;20212;-84
2022/10/24 02:07:17;;;;;;;7.23;4.30;;;12.90;99.90;;;;;;4118557;28;20234;-80
2022/10/24 02:09:20;;;;;;;7.67;3.70;;;12.90;99.90;;;;;;4124555;28;20213;-78
2022/10/24 02:11:22;;;;;;;5.20;3.90;;;12.90;99.90;;;;;;4128032;28;20239;-78
2022/10/24 02:13:29;;;;;;;7.47;4.40;;;12.90;99.90;;;;;;4112814;28;20237;-78
2022/10/24 02:15:34;;;;;;;5.50;3.70;;;12.90;99.90;;;;;;4118399;28;20215;-77
2022/10/24 02:17:36;;;;;;;6.83;4.03;;;12.80;99.90;;;;;;4126769;28;20232;-78
2022/10/24 02:19:38;;;;;;;6.50;4.10;;;12.80;99.90;;;;;;4127196;28;20581;-77
2022/10/24 02:21:45;;;;;;;6.63;4.03;;;12.80;99.90;;;;;;4113178;28;20226;-77
2022/10/24 02:23:53;;;;;;;5.73;4.07;;;12.80;99.90;;;;;;4124082;28;20287;-80
2022/10/24 02:25:59;;;;;;;7.07;4.13;;;12.70;99.90;;;;;;4109368;28;20205;-78
2022/10/24 02:28:07;;;;;;;7.53;4.33;;;12.80;99.90;;;;;;4123387;28;20241;-78
2022/10/24 02:30:14;;;;;;;8.07;4.53;;;12.70;99.90;;;;;;4126048;28;20227;-77
2022/10/24 02:32:20;;;;;;;9.17;4.57;;;12.70;99.90;;;;;;4121882;28;20215;-78
2022/10/24 02:34:25;;;;;;;7.63;4.27;;;12.70;99.90;;;;;;4120580;28;20222;-78
2022/10/24 02:36:29;;;;;;;10.10;4.53;;;12.70;99.90;;;;;;4128287;28;20254;-78
2022/10/24 02:38:36;;;;;;;6.57;4.03;;;12.70;99.90;;;;;;4118295;28;20264;-77
2022/10/24 02:40:39;;;;;;;8.57;4.93;;;12.70;99.90;;;;;;4124265;28;20291;-77
2022/10/24 02:42:42;;;;;;;10.20;4.90;;;12.70;99.90;;;;;;4121506;28;20237;-77
2022/10/24 02:44:47;;;;;;;7.17;4.50;;;12.70;99.90;;;;;;4128819;28;20211;-79
2022/10/24 02:46:52;;;;;;;8.10;4.30;;;12.70;99.90;;;;;;4104528;28;20217;-78
2022/10/24 02:48:58;;;;;;;8.47;4.70;;;12.70;99.90;;;;;;4120181;28;20295;-78
2022/10/24 02:51:00;;;;;;;10.83;4.97;;;12.70;99.90;;;;;;4118414;28;20213;-78
2022/10/24 02:53:02;;;;;;;6.50;4.27;;;12.70;99.90;;;;;;4107861;28;20268;-78
2022/10/24 02:55:07;;;;;;;10.17;4.70;;;12.70;99.90;;;;;;4126805;28;20236;-78
2022/10/24 02:57:09;;;;;;;9.57;4.87;;;12.70;99.90;;;;;;4120487;28;20220;-77
2022/10/24 02:59:11;;;;;;;9.37;4.73;;;12.70;99.90;;;;;;4122178;28;20644;-78
2022/10/24 03:01:13;;;;;;;9.53;4.30;;;12.70;99.90;;;;;;4126958;28;20295;-80
2022/10/24 03:03:15;;;;;;;10.27;4.60;;;12.70;99.90;;;;;;4118956;28;20212;-78
2022/10/24 03:05:17;;;;;;;8.43;4.30;;;12.80;99.90;;;;;;4114553;28;20497;-78
2022/10/24 03:07:21;;;;;;;9.03;4.07;;;12.80;99.90;;;;;;4118238;28;20709;-78
2022/10/24 03:09:22;;;;;;;7.20;4.10;;;12.80;99.90;;;;;;4120864;28;20266;-78
2022/10/24 03:11:26;;;;;;;8.00;4.13;;;12.80;99.90;;;;;;4107845;28;20221;-79
2022/10/24 03:13:28;;;;;;;10.77;4.37;;;12.80;99.90;;;;;;4125976;28;20218;-78
2022/10/24 03:15:30;;;;;;;9.27;4.20;;;12.80;99.90;;;;;;4120948;28;20319;-78
2022/10/24 03:17:31;;;;;;;10.00;4.50;;;12.80;99.90;;;;;;4105091;28;20229;-78
2022/10/24 03:19:33;;;;;;;11.53;4.63;;;12.80;99.90;;;;;;4120113;28;20298;-78
2022/10/24 03:21:35;;;;;;;11.10;4.50;;;12.80;99.90;;;;;;4126095;28;20214;-78
2022/10/24 03:23:37;;;;;;;6.53;3.80;;;12.80;99.90;;;;;;4117482;28;20678;-78
2022/10/24 03:25:39;;;;;;;6.07;3.67;;;12.90;99.90;;;;;;4123199;28;20688;-79
2022/10/24 03:27:42;;;;;;;8.10;3.90;;;12.90;99.90;;;;;;4124923;28;20227;-80
2022/10/24 03:29:44;;;;;;;7.27;3.90;;;12.90;99.90;;;;;;4119465;28;20199;-78
2022/10/24 03:31:46;;;;;;;7.30;3.67;;;12.90;99.90;;;;;;4122081;28;20216;-78
2022/10/24 03:33:47;;;;;;;9.23;3.90;;;12.90;99.90;;;;;;4119249;28;20251;-80
2022/10/24 03:35:52;;;;;;;8.17;3.80;;;12.90;99.90;;;;;;4123079;28;20219;-78
2022/10/24 03:37:54;;;;;;;6.90;4.40;;;12.90;99.90;;;;;;4106010;28;20245;-80
2022/10/24 03:39:59;;;;;;;7.97;4.27;;;13.00;99.90;;;;;;4120950;28;20213;-78
2022/10/24 03:42:01;;;;;;;7.57;4.03;;;13.00;99.90;;;;;;4123503;28;20208;-78
2022/10/24 03:44:04;;;;;;;7.03;4.03;;;13.00;99.90;;;;;;4122751;28;20678;-77
2022/10/24 03:46:06;;;;;;;8.03;4.33;;;13.00;99.90;;;;;;4123672;28;20232;-78
2022/10/24 03:48:08;;;;;;;9.23;4.33;;;13.00;99.90;;;;;;4117264;28;20245;-78
2022/10/24 03:50:10;;;;;;;8.57;3.70;;;13.00;99.90;;;;;;4111809;28;20206;-79
2022/10/24 03:52:12;;;;;;;10.50;3.90;;;13.10;99.90;;;;;;4127596;28;20222;-79
2022/10/24 03:54:15;;;;;;;7.70;3.50;;;13.10;99.90;;;;;;4131207;28;20288;-79
2022/10/24 03:56:16;;;;;;;10.07;4.10;;;13.10;99.90;;;;;;4124681;28;20299;-78
2022/10/24 03:58:18;;;;;;;9.23;4.20;;;13.20;99.90;;;;;;4126278;28;20765;-78
2022/10/24 04:00:26;;;;;;;10.63;4.00;;;13.10;99.90;;;;;;4123144;28;20208;-78
2022/10/24 04:02:28;;;;;;;13.17;4.20;;;13.10;99.90;;;;;;4107706;28;20714;-78
2022/10/24 04:04:30;;;;;;;10.20;4.30;;;13.20;99.90;;;;;;4125763;28;20574;-78
2022/10/24 04:06:32;;;;;;;11.13;4.27;;;13.20;99.90;;;;;;4124016;28;20307;-83
2022/10/24 04:08:34;;;;;;;9.47;4.20;;;13.20;99.90;;;;;;4130241;28;20221;-77
2022/10/24 04:10:35;;;;;;;14.00;4.20;;;13.20;99.90;;;;;;4126228;28;20263;-79
2022/10/24 04:12:37;;;;;;;10.83;3.50;;;13.30;99.90;;;;;;4128093;28;20564;-78
2022/10/24 04:14:39;;;;;;;6.43;3.60;;;13.30;99.90;;;;;;4111738;28;20630;-77
2022/10/24 04:16:42;;;;;;;10.27;3.83;;;13.30;99.90;;;;;;4121354;28;20211;-79
2022/10/24 04:18:44;;;;;;;9.07;3.97;;;13.30;99.90;;;;;;4124651;28;20320;-80
2022/10/24 04:20:46;;;;;;;9.40;3.77;;;13.30;99.90;;;;;;4131308;28;20216;-80
2022/10/24 04:22:48;;;;;;;11.43;3.70;;;13.40;99.90;;;;;;4115104;28;20578;-78
2022/10/24 04:24:50;;;;;;;7.40;3.73;;;13.40;99.90;;;;;;4122079;28;20216;-77
2022/10/24 04:26:55;;;;;;;10.27;3.93;;;13.40;99.90;;;;;;4124460;28;20237;-78
2022/10/24 04:28:57;;;;;;;7.00;3.43;;;13.40;99.90;;;;;;4125159;28;20217;-78
2022/10/24 04:30:59;;;;;;;11.70;3.97;;;13.40;99.90;;;;;;4111816;28;20600;-80
2022/10/24 04:33:02;;;;;;;7.87;3.53;;;13.40;99.90;;;;;;4127740;28;21035;-80
2022/10/24 04:35:05;;;;;;;6.47;3.67;;;13.40;99.90;;;;;;4119448;28;20228;-78
2022/10/24 04:37:06;;;;;;;10.23;3.53;;;13.40;99.90;;;;;;4124054;28;20295;-77
2022/10/24 04:39:08;;;;;;;7.50;3.20;;;13.50;99.90;;;;;;4106675;28;20697;-78
2022/10/24 04:41:10;;;;;;;10.57;3.73;;;13.50;99.90;;;;;;4111173;28;20714;-78
2022/10/24 04:43:12;;;;;;;8.03;3.50;;;13.50;99.90;;;;;;4123284;28;20205;-83
2022/10/24 04:45:14;;;;;;;7.63;3.40;;;13.50;99.90;;;;;;4125017;28;20211;-81
2022/10/24 04:47:15;;;;;;;8.57;3.50;;;13.50;99.90;;;;;;4114460;28;20239;-78
2022/10/24 04:49:19;;;;;;;8.57;3.80;;;13.50;99.90;;;;;;4108207;28;20265;-79
2022/10/24 04:53:44;;;;;;;7.93;3.00;;;13.50;99.90;;;;;;4114365;28;20288;-79
2022/10/24 04:56:08;;;;;;;8.37;4.00;;;13.60;99.90;;;;;;4101154;28;20221;-78
2022/10/24 05:05:15;;;;;;;14.23;3.40;;;13.60;99.90;;;;;;3926709;30;20373;-78
2022/10/24 05:07:19;;;;;;;8.23;3.30;;;13.50;99.90;;;;;;3948330;29;20813;-79
2022/10/24 05:09:21;;;;;;;11.00;3.90;;;13.60;99.90;;;;;;4034524;29;20676;-79
2022/10/24 05:11:23;;;;;;;5.97;3.00;;;13.60;99.90;;;;;;4095119;28;20238;-78
2022/10/24 05:13:24;;;;;;;10.20;3.20;;;13.60;99.90;;;;;;4122578;28;20205;-80
2022/10/24 05:15:28;;;;;;;8.43;3.67;;;13.60;99.90;;;;;;4121266;28;20204;-79
2022/10/24 05:17:30;;;;;;;8.37;3.80;;;13.50;99.90;;;;;;4123248;28;20236;-81
2022/10/24 05:19:32;;;;;;;9.23;3.37;;;13.60;99.90;;;;;;4109660;28;20220;-81
2022/10/24 05:21:35;;;;;;;8.90;2.90;;;13.60;99.90;;;;;;4126392;28;20212;-80
2022/10/24 05:23:37;;;;;;;9.20;3.33;;;13.60;99.90;;;;;;4105962;28;20301;-80
2022/10/24 05:25:39;;;;;;;7.10;3.10;;;13.60;99.90;;;;;;4124790;28;20211;-79
2022/10/24 05:27:41;;;;;;;6.97;3.17;;;13.60;99.90;;;;;;4124276;28;20224;-79
2022/10/24 05:29:43;;;;;;;11.97;3.63;;;13.60;99.90;;;;;;4109936;28;20209;-81
2022/10/24 05:31:44;;;;;;;10.03;3.33;;;13.60;99.90;;;;;;4126408;28;20232;-81
2022/10/24 05:33:46;;;;;;;7.17;3.20;;;13.60;99.90;;;;;;4122612;28;20216;-78
2022/10/24 05:35:48;;;;;;;6.80;3.33;;;13.60;99.90;;;;;;4119783;28;20203;-78
2022/10/24 05:37:51;;;;;;;5.40;3.03;;;13.60;99.90;;;;;;4127734;28;20225;-78
2022/10/24 05:39:53;;;;;;;6.63;2.67;;;13.60;99.90;;;;;;4123140;28;20677;-76
2022/10/24 05:41:55;;;;;;;7.13;2.80;;;13.60;99.90;;;;;;4125348;28;20283;-77
2022/10/24 05:43:57;;;;;;;7.00;2.70;;;13.60;99.90;;;;;;4126073;28;20201;-75
2022/10/24 05:45:58;;;;;;;8.97;2.90;;;13.60;99.90;;;;;;4123758;28;20658;-75
2022/10/24 05:48:00;;;;;;;8.67;2.67;;;13.60;99.90;;;;;;4128573;28;20231;-78
2022/10/24 05:50:03;;;;;;;9.93;3.43;;;13.60;99.90;;;;;;4125975;28;20209;-80
2022/10/24 05:52:05;;;;;;;8.90;2.87;;;13.60;99.90;;;;;;4123784;28;20239;-82
2022/10/24 05:54:11;;;;;;;7.80;2.80;;;13.60;99.90;;;;;;4109902;28;20353;-81
2022/10/24 05:56:13;;;;;;;7.13;2.60;;;13.60;99.90;;;;;;4110548;28;20616;-79
2022/10/24 05:58:19;;;;;;;8.50;2.93;;;13.60;99.90;;;;;;4119759;28;20230;-79
2022/10/24 06:00:21;;;;;;;8.67;2.93;;;13.70;99.90;;;;;;4107285;28;20245;-80
2022/10/24 06:02:23;;;;;;;10.27;3.13;;;13.70;99.90;;;;;;4105325;28;20213;-78
2022/10/24 06:04:25;;;;;;;7.07;2.57;;;13.70;99.90;;;;;;4125335;28;20220;-78
2022/10/24 06:06:27;;;;;;;7.67;3.20;;;13.70;99.90;;;;;;4100989;28;20236;-78
2022/10/24 06:08:29;;;;;;;5.87;3.00;;;13.70;99.90;;;;;;4113164;28;20316;-80
2022/10/24 06:10:32;;;;;;;8.43;2.50;;;13.70;99.90;;;;;;4125254;28;20220;-79
2022/10/24 06:12:36;;;;;;;8.77;2.80;;;13.70;99.90;;;;;;4120066;28;20259;-79
2022/10/24 06:14:39;;;;;;;13.57;3.37;;;13.70;99.90;;;;;;4120766;28;20727;-78
2022/10/24 06:16:41;;;;;;;8.33;2.90;;;13.80;99.90;;;;;;4124913;28;20578;-78
2022/10/24 06:18:43;;;;;;;9.07;2.50;;;13.80;99.90;;;;;;4111392;28;20234;-79
2022/10/24 06:20:45;;;;;;;5.47;2.57;;;13.80;99.90;;;;;;4119951;28;20209;-79
2022/10/24 06:22:49;;;;;;;3.87;2.57;;;13.80;99.90;;;;;;4107171;28;20223;-78
2022/10/24 06:24:51;;;;;;;7.03;3.00;;;13.80;99.90;;;;;;4118571;28;20707;-79
2022/10/24 06:26:54;;;;;;;6.67;2.60;;;13.90;99.90;;;;;;4118763;28;20218;-81
2022/10/24 06:28:56;;;;;;;7.03;2.60;;;13.90;99.90;;;;;;4109275;28;20214;-79
2022/10/24 06:31:02;;;;;;;7.43;2.70;;;13.90;99.90;;;;;;4125050;28;20231;-80
2022/10/24 06:33:04;;;;;;;6.43;2.50;;;13.90;99.90;;;;;;4112756;28;20222;-79
2022/10/24 06:35:07;;;;;;;7.77;3.10;;;14.00;99.90;;;;;;4123686;28;20730;-80
2022/10/24 06:37:10;;;;;;;8.57;2.60;;;14.00;99.90;;;;;;4119944;28;20228;-79
2022/10/24 06:39:12;;;;;;;6.57;2.63;;;14.00;99.90;;;;;;4120120;28;20222;-80
2022/10/24 06:41:15;;;;;;;10.37;3.10;;;14.00;99.90;;;;;;4106007;28;20226;-80
2022/10/24 06:43:19;;;;;;;5.27;2.93;;;14.10;99.90;;;;;;4123654;28;20620;-80
2022/10/24 06:45:22;;;;;;;6.03;2.70;;;14.10;99.90;;;;;;4126063;28;20198;-78
2022/10/24 06:47:25;;;;;;;5.70;2.40;;;14.00;99.90;;;;;;4120034;28;20583;-77
2022/10/24 06:49:27;;;;;;;6.90;3.00;;;14.00;99.90;;;;;;4124789;28;20210;-79
2022/10/24 06:51:29;;;;;;;6.97;2.83;;;14.10;99.90;;;;;;4107085;28;20639;-78
2022/10/24 06:53:31;;;;;;;7.50;2.43;;;14.10;99.90;;;;;;4121945;28;20291;-78
2022/10/24 06:55:33;;;;;;;6.33;2.93;;;14.10;99.90;;;;;;4107882;28;20238;-80
2022/10/24 06:57:35;;;;;;;8.53;2.80;;;14.10;99.90;;;;;;4104788;28;20834;-79
2022/10/24 06:59:39;;;;;;;5.63;2.63;;;14.10;99.90;;;;;;4105409;28;20233;-78
2022/10/24 07:01:42;;;;;;;5.50;2.97;;;14.10;99.90;;;;;;4125417;28;20199;-79
2022/10/24 07:03:45;;;;;;;6.87;2.40;;;14.20;99.90;;;;;;4122675;28;20233;-78
2022/10/24 07:05:47;;;;;;;4.23;2.40;;;14.20;99.90;;;;;;4111695;28;20211;-79
2022/10/24 07:07:49;;;;;;;7.63;2.80;;;14.20;99.90;;;;;;4124682;28;20288;-77
2022/10/24 07:09:55;;;;;;;5.37;2.47;;;14.20;99.90;;;;;;4121496;28;20688;-78
2022/10/24 07:11:58;;;;;;;9.97;2.43;;;14.20;99.90;;;;;;4104343;28;20302;-81
2022/10/24 07:14:00;;;;;;;8.30;2.20;;;14.20;99.90;;;;;;4118942;28;20204;-79
2022/10/24 07:16:03;;;;;;;13.43;2.57;;;14.30;99.90;;;;;;4108581;28;20212;-78
2022/10/24 07:18:05;;;;;;;5.87;2.20;;;14.30;99.90;;;;;;4120261;28;20269;-78
2022/10/24 07:20:09;;;;;;;6.93;2.40;;;14.40;99.90;;;;;;4121290;28;20210;-79
2022/10/24 07:22:11;;;;;;;6.50;2.27;;;14.30;99.90;;;;;;4119928;28;20211;-78
2022/10/24 07:24:13;;;;;;;5.33;2.23;;;14.40;99.90;;;;;;4127211;28;20261;-78
2022/10/24 07:26:16;;;;;;;9.50;2.40;;;14.40;99.90;;;;;;4129564;28;20213;-82
2022/10/24 07:28:18;;;;;;;5.43;2.20;;;14.50;99.90;;;;;;4128572;28;20213;-78
2022/10/24 07:30:21;;;;;;;9.50;2.50;;;14.50;99.90;;;;;;4129568;28;20209;-81
2022/10/24 07:32:24;;;;;;;7.73;2.37;;;14.50;99.90;;;;;;4109378;28;20289;-78
2022/10/24 07:34:26;;;;;;;9.73;2.70;;;14.50;99.90;;;;;;4109452;28;20263;-78
2022/10/24 07:36:29;;;;;;;10.13;2.30;;;14.60;99.90;;;;;;4128973;28;20207;-78
2022/10/24 07:38:31;;;;;;;5.77;2.30;;;14.60;99.90;;;;;;4107964;28;20661;-78
2022/10/24 07:40:33;;;;;;;7.37;2.40;;;14.60;99.90;;;;;;4114055;28;20215;-79
2022/10/24 07:42:35;;;;;;;7.77;2.40;;;14.70;99.90;;;;;;4125585;28;20729;-81
2022/10/24 07:44:37;;;;;;;9.07;2.10;;;14.70;99.90;;;;;;4127837;28;20290;-80
2022/10/24 07:46:41;;;;;;;5.13;2.20;;;14.70;99.90;;;;;;4128093;28;20684;-81
2022/10/24 07:48:45;;;;;;;7.70;1.90;;;14.80;99.90;;;;;;4110750;28;20247;-80
2022/10/24 07:50:47;;;;;;;9.70;2.10;;;14.70;99.90;;;;;;4122733;28;20252;-78
2022/10/24 07:52:49;;;;;;;6.50;2.23;;;14.70;99.90;;;;;;4126153;28;20214;-78
2022/10/24 07:54:53;;;;;;;6.83;2.30;;;14.80;99.90;;;;;;4125077;28;20270;-80
2022/10/24 07:56:56;;;;;;;5.17;2.07;;;14.80;99.90;;;;;;4126850;28;20203;-78
2022/10/24 07:58:59;;;;;;;7.90;2.27;;;14.90;99.90;;;;;;4111546;28;20242;-78
2022/10/24 08:01:04;;;;;;;6.20;2.20;;;14.90;99.90;;;;;;4125022;28;20294;-80
2022/10/24 08:03:06;;;;;;;8.30;2.43;;;14.90;99.90;;;;;;4114135;28;20695;-78
2022/10/24 08:05:10;;;;;;;5.90;2.10;;;14.90;99.90;;;;;;4125401;28;20266;-81
2022/10/24 08:07:12;;;;;;;4.93;2.40;;;14.90;99.90;;;;;;4126323;28;20206;-78
2022/10/24 08:09:17;;;;;;;7.40;2.60;;;14.90;99.90;;;;;;4107975;28;20204;-80
2022/10/24 08:11:21;;;;;;;5.27;2.17;;;15.00;99.90;;;;;;4127585;28;20210;-79
2022/10/24 08:13:23;;;;;;;6.67;2.27;;;15.00;99.90;;;;;;4124563;28;20259;-83
2022/10/24 08:15:26;;;;;;;8.70;2.50;;;15.00;99.90;;;;;;4122094;28;20203;-78
2022/10/24 08:17:28;;;;;;;9.20;2.40;;;15.00;99.90;;;;;;4128203;28;20279;-82
2022/10/24 08:19:30;;;;;;;4.80;1.97;;;15.00;99.90;;;;;;4113767;28;20326;-82
2022/10/24 08:21:35;;;;;;;6.97;2.03;;;15.00;99.90;;;;;;4125315;28;20287;-83
2022/10/24 08:23:38;;;;;;;7.43;2.00;;;15.10;99.90;;;;;;4126116;28;20222;-79
2022/10/24 08:25:41;;;;;;;6.00;2.13;;;15.10;99.90;;;;;;4110936;28;20299;-82
2022/10/24 08:27:43;;;;;;;5.03;2.10;;;15.10;99.90;;;;;;4126916;28;20310;-79
2022/10/24 08:29:45;;;;;;;6.47;2.47;;;15.10;99.90;;;;;;4129785;28;20209;-83
2022/10/24 08:31:49;;;;;;;5.50;1.93;;;15.20;99.90;;;;;;4128411;28;20660;-80
2022/10/24 08:33:53;;;;;;;5.60;2.27;;;15.20;99.90;;;;;;4125669;28;20233;-79
2022/10/24 08:36:01;;;;;;;10.27;2.20;;;15.30;99.90;;;;;;4105881;28;20214;-79
2022/10/24 08:38:12;;;;;;;11.10;2.23;;;15.20;99.90;;;;;;4126033;28;20248;-81
2022/10/24 08:40:18;;;;;;;5.60;2.07;;;15.30;99.90;;;;;;4130804;28;20220;-82
2022/10/24 08:42:20;;;;;;;9.23;2.60;;;15.30;99.90;;;;;;4126849;28;20260;-80
2022/10/24 08:44:30;;;;;;;7.10;2.43;;;15.40;99.90;;;;;;4131685;28;20223;-80
2022/10/24 08:46:47;;;;;;;8.07;2.10;;;15.40;99.90;;;;;;4133255;28;20736;-80
2022/10/24 08:48:57;;;;;;;9.03;2.17;;;15.40;99.90;;;;;;4115777;28;20296;-82
2022/10/24 08:51:07;;;;;;;5.60;2.40;;;15.50;99.90;;;;;;4112167;28;20256;-81
2022/10/24 08:53:15;;;;;;;5.37;2.03;;;15.50;99.90;;;;;;4102927;28;20730;-80
2022/10/24 08:55:21;;;;;;;8.30;2.70;;;15.50;99.90;;;;;;4123881;28;20231;-82
2022/10/24 08:57:26;;;;;;;7.40;2.13;;;15.60;99.90;;;;;;4106589;28;20296;-80
2022/10/24 08:59:30;;;;;;;7.40;2.20;;;15.80;99.90;;;;;;4122344;28;20709;-82
2022/10/24 09:01:39;;;;;;;7.07;1.90;;;15.70;99.90;;;;;;4124620;28;20209;-80
2022/10/24 09:03:44;;;;;;;6.10;1.97;;;15.70;99.90;;;;;;4118940;28;20213;-80
2022/10/24 09:05:49;;;;;;;5.30;2.00;;;15.80;99.90;;;;;;4109170;28;20683;-81
2022/10/24 09:07:54;;;;;;;8.90;1.93;;;15.70;99.90;;;;;;4122059;28;20234;-81
2022/10/24 09:10:07;;;;;;;9.17;2.17;;;15.80;99.90;;;;;;4128889;28;20193;-83
2022/10/24 09:12:13;;;;;;;6.57;1.80;;;16.00;99.90;;;;;;4122297;28;20225;-79
2022/10/24 09:14:17;;;;;;;6.23;1.87;;;15.90;99.90;;;;;;4124393;28;20810;-79
2022/10/24 09:16:22;;;;;;;4.83;1.90;;;16.00;99.90;;;;;;4124954;28;20215;-81
2022/10/24 09:18:28;;;;;;;5.47;1.90;;;15.90;99.90;;;;;;4116420;28;20317;-81
2022/10/24 09:20:32;;;;;;;5.40;1.57;;;15.90;99.90;;;;;;4128014;28;20224;-81
2022/10/24 09:22:35;;;;;;;7.50;2.00;;;16.00;99.90;;;;;;4126919;28;20206;-78
2022/10/24 09:24:42;;;;;;;4.37;1.87;;;16.00;99.90;;;;;;4127239;28;20252;-81
2022/10/24 09:26:45;;;;;;;6.37;1.90;;;16.10;99.90;;;;;;4107494;28;20294;-79
2022/10/24 09:28:47;;;;;;;7.20;2.20;;;15.90;99.90;;;;;;4127994;28;20213;-79
2022/10/24 09:30:50;;;;;;;4.50;1.70;;;16.10;99.90;;;;;;4125680;28;20236;-81
2022/10/24 09:32:53;;;;;;;4.97;1.80;;;16.10;99.90;;;;;;4127921;28;20208;-82
2022/10/24 09:34:58;;;;;;;6.13;2.07;;;16.30;99.90;;;;;;4106447;28;20214;-79
2022/10/24 09:37:00;;;;;;;8.30;1.73;;;16.20;99.90;;;;;;4125996;28;20288;-79
2022/10/24 09:39:25;;;;;;;5.27;2.10;;;16.20;99.90;;;;;;4120566;28;20241;-79
2022/10/24 09:41:32;;;;;;;6.17;2.10;;;16.30;99.90;;;;;;4125342;28;20677;-80
2022/10/24 09:43:40;;;;;;;4.57;1.93;;;16.30;99.90;;;;;;4126451;28;20300;-81
2022/10/24 09:45:43;;;;;;;5.93;2.10;;;16.50;99.90;;;;;;4134007;28;20219;-84
2022/10/24 09:47:54;;;;;;;6.37;1.70;;;16.60;99.90;;;;;;4133758;28;20216;-81
2022/10/24 09:49:57;;;;;;;4.33;1.80;;;16.40;99.90;;;;;;4131701;28;20214;-81
2022/10/24 09:52:03;;;;;;;7.83;1.80;;;16.40;99.90;;;;;;4113364;28;20224;-78
2022/10/24 09:54:25;;;;;;;6.70;1.90;;;16.40;99.90;;;;;;4122483;28;20662;-79
2022/10/24 09:56:35;;;;;;;7.33;2.00;;;16.40;99.90;;;;;;4119119;28;20267;-78
2022/10/24 09:58:38;;;;;;;5.43;1.93;;;16.50;99.90;;;;;;4107629;28;20253;-80
2022/10/24 10:00:41;;;;;;;6.27;2.00;;;16.50;99.90;;;;;;4106700;28;20743;-78
2022/10/24 10:02:57;;;;;;;8.50;2.10;;;16.60;99.90;;;;;;4103119;28;20203;-78
2022/10/24 10:05:20;;;;;;;9.50;2.10;;;16.60;99.90;;;;;;4104057;28;20209;-80
2022/10/24 10:07:28;;;;;;;5.70;2.20;;;16.60;99.90;;;;;;4116681;28;20279;-79
2022/10/24 10:09:33;;;;;;;3.93;1.93;;;16.70;99.90;;;;;;4127621;28;20315;-79
2022/10/24 10:11:38;;;;;;;7.80;2.40;;;16.70;99.90;;;;;;4112100;28;20214;-79
2022/10/24 10:13:49;;;;;;;6.97;2.13;;;16.70;99.90;;;;;;4103897;28;20257;-79
2022/10/24 10:15:56;;;;;;;4.50;1.93;;;16.70;99.90;;;;;;4122423;28;20304;-78
2022/10/24 10:18:00;;;;;;;10.50;2.87;;;16.70;99.90;;;;;;4124161;28;20239;-79
2022/10/24 10:20:03;;;;;;;3.57;2.20;;;16.70;99.90;;;;;;4111088;28;20261;-78
2022/10/24 10:22:06;;;;;;;5.33;1.93;;;16.80;99.90;;;;;;4109809;28;20624;-80
2022/10/24 10:24:25;;;;;;;6.03;2.00;;;16.80;99.90;;;;;;4125868;28;20616;-79
2022/10/24 10:26:29;;;;;;;5.27;2.10;;;16.80;99.90;;;;;;4122508;28;20682;-80
2022/10/24 10:28:35;;;;;;;6.53;2.50;;;16.80;99.90;;;;;;4126117;28;20228;-81
2022/10/24 10:30:38;;;;;;;9.37;2.30;;;16.90;99.90;;;;;;4124169;28;20324;-80
2022/10/24 10:32:47;;;;;;;7.60;2.10;;;16.90;99.90;;;;;;4129067;28;20209;-78
2022/10/24 10:34:57;;;;;;;7.63;2.33;;;16.90;99.90;;;;;;4121803;28;20228;-78
2022/10/24 10:37:25;;;;;;;10.17;2.07;;;16.90;99.90;;;;;;4118117;28;20209;-80
2022/10/24 10:39:45;;;;;;;7.97;2.30;;;16.90;99.90;;;;;;4107177;28;20279;-79
2022/10/24 10:41:53;;;;;;;11.13;2.17;;;16.90;99.90;;;;;;4123221;28;20189;-79
2022/10/24 10:44:05;;;;;;;7.40;2.23;;;17.00;99.90;;;;;;4121110;28;20231;-79
2022/10/24 10:46:21;;;;;;;4.23;2.00;;;16.90;99.90;;;;;;4123251;28;20251;-78
2022/10/24 10:48:36;;;;;;;4.17;1.83;;;16.90;99.90;;;;;;4124813;28;20252;-80
2022/10/24 10:50:42;;;;;;;6.53;2.20;;;17.00;99.90;;;;;;4128064;28;20712;-78
2022/10/24 10:52:48;;;;;;;7.27;2.00;;;17.00;99.90;;;;;;4117689;28;20959;-79
2022/10/24 10:55:20;;;;;;;5.83;2.40;;;17.00;99.90;;;;;;4123069;28;20210;-81
2022/10/24 10:57:34;;;;;;;4.80;1.77;;;17.00;99.90;;;;;;4118202;28;20620;-80